»·PEaware :: UAL1399 KFLG-KPHX

UAL1399 :: KFLG-KPHX

FLIGHT INFORMATION

Flight Status: Arrived
Operator:
United Airlines
More flights by this operator :: More flights under this callsign
Pilot: David C. (16084)
Aircraft: SAAB 340
(SF34)
More flights by this aircraft type
Origin: KFLG Flagstaff Pulliam
United States
Destination: KPHX Phoenix Sky Harbor Intl
United States
More flights between these airports :: More routes between these airports
Route: +FLG1 OATES DSERT
File this flight plan on PilotEdge
Remarks:
Altitude:
(Current/Filed)
17,000ft
Speed:
(Current/Filed)
284kts
Departed: 26-Jun-18 04:57 PM
Arrived: 26-Jun-18 05:28 PM
Distance/Time
Traveled:
103nm/0:31
Distance/Time
To Go:
Arrived

Flight Plot

Page will automatically refresh every two minutes.

Flight plan parsing failed; only flown route is shown


Map Options




Map Legend


Flown Route
Filed Route
Departure Airport
Arrival Airport
Navaid (VOR, NDB)
Fix

Horizontal Profiles

Position Reports

Time Latitude Longitude Heading Altitude Ground
Speed
26-Jun-18 16:31 35.138548 -111.674327 349 7016ft 0kts
26-Jun-18 16:32 35.138548 -111.674327 349 7016ft 0kts
26-Jun-18 16:33 35.138548 -111.674327 349 7016ft 0kts
26-Jun-18 16:34 35.138548 -111.674327 349 7016ft 0kts
26-Jun-18 16:35 35.138548 -111.674327 349 7016ft 0kts
26-Jun-18 16:36 35.138548 -111.674327 349 7016ft 0kts
26-Jun-18 16:37 35.138548 -111.674327 349 7016ft 0kts
26-Jun-18 16:38 35.138548 -111.674327 349 7016ft 0kts
26-Jun-18 16:39 35.138548 -111.674327 349 7016ft 0kts
26-Jun-18 16:40 35.138548 -111.674327 349 7016ft 0kts
26-Jun-18 16:41 35.138548 -111.674327 349 7016ft 0kts
26-Jun-18 16:42 35.138548 -111.674327 349 7016ft 0kts
26-Jun-18 16:43 35.138548 -111.674327 349 7016ft 0kts
26-Jun-18 16:44 35.138548 -111.674327 349 7016ft 0kts
26-Jun-18 16:45 35.138548 -111.674327 349 7016ft 0kts
26-Jun-18 16:46 35.138548 -111.674327 349 7016ft 0kts
26-Jun-18 16:47 35.138548 -111.674327 349 7016ft 0kts
26-Jun-18 16:48 35.138704 -111.674119 83 7016ft 2kts
26-Jun-18 16:49 35.138636 -111.673854 113 7016ft 0kts
26-Jun-18 16:50 35.138586 -111.672867 44 7016ft 9kts
26-Jun-18 16:51 35.141325 -111.669931 41 7016ft 16kts
26-Jun-18 16:52 35.145150 -111.665865 39 7016ft 19kts
26-Jun-18 16:53 35.149511 -111.661198 42 7016ft 19kts
26-Jun-18 16:54 35.149822 -111.660472 108 7016ft 0kts
26-Jun-18 16:55 35.149822 -111.660472 108 7016ft 0kts
26-Jun-18 16:56 35.148720 -111.660311 221 7016ft 10kts
26-Jun-18 16:57 35.127684 -111.681942 221 7477ft 152kts
26-Jun-18 16:58 35.083484 -111.679810 190 9258ft 186kts
26-Jun-18 16:59 35.032712 -111.687667 187 10864ft 186kts
26-Jun-18 17:00 34.980508 -111.694837 187 12307ft 188kts
26-Jun-18 17:01 34.928349 -111.700798 187 13630ft 191kts
26-Jun-18 17:02 34.877442 -111.708243 187 15017ft 187kts
26-Jun-18 17:03 34.825264 -111.704705 175 16168ft 191kts
26-Jun-18 17:04 34.770869 -111.699193 175 16861ft 212kts
26-Jun-18 17:05 34.707316 -111.692721 175 16859ft 243kts
26-Jun-18 17:06 34.637761 -111.685624 175 16855ft 256kts
26-Jun-18 17:07 34.565987 -111.678302 175 16854ft 261kts
26-Jun-18 17:08 34.493766 -111.670984 175 16861ft 261kts
26-Jun-18 17:09 34.422450 -111.672850 193 16875ft 257kts
26-Jun-18 17:10 34.352891 -111.693493 194 16879ft 257kts
26-Jun-18 17:11 34.283579 -111.714503 194 16884ft 257kts
26-Jun-18 17:12 34.214213 -111.735536 194 16875ft 258kts
26-Jun-18 17:13 34.144740 -111.756594 194 15577ft 255kts
26-Jun-18 17:14 34.077386 -111.776958 193 13668ft 247kts
26-Jun-18 17:15 34.014293 -111.795997 193 11844ft 244kts
26-Jun-18 17:16 33.949227 -111.815570 194 9939ft 240kts
26-Jun-18 17:17 33.885577 -111.834746 194 8133ft 231kts
26-Jun-18 17:18 33.828016 -111.852092 194 8052ft 202kts
26-Jun-18 17:19 33.775175 -111.867832 194 8061ft 199kts
26-Jun-18 17:20 33.716376 -111.876399 178 7793ft 227kts
26-Jun-18 17:21 33.654615 -111.872927 179 6139ft 219kts
26-Jun-18 17:22 33.595847 -111.869182 178 5822ft 213kts
26-Jun-18 17:23 33.538177 -111.865565 182 4418ft 204kts
26-Jun-18 17:24 33.483156 -111.865667 182 3453ft 177kts
26-Jun-18 17:25 33.441881 -111.883986 245 3083ft 151kts
26-Jun-18 17:26 33.440880 -111.928965 268 2328ft 128kts
26-Jun-18 17:27 33.440785 -111.973268 269 1513ft 132kts
26-Jun-18 17:28 33.440853 -112.008778 271 1139ft 25kts
26-Jun-18 17:29 33.440067 -112.010839 175 1139ft 0kts
26-Jun-18 17:30 33.439085 -112.010918 115 1139ft 15kts
26-Jun-18 17:31 33.437327 -112.009275 100 1139ft 0kts
26-Jun-18 17:32 33.437327 -112.009275 100 1139ft 0kts

Navigation Log

Ident Type
Flight plan parsing failed, navigation log unavailable